Time;durP1;ratioP1;P1;durP2;ratioP2;P2;SDS_P1;SDS_P2;PMS_P1;PMS_P2;Temp;Humidity;BMP_temperature;BMP_pressure;BME280_temperature;BME280_humidity;BME280_pressure;Samples;Min_cycle;Max_cycle;Signal;HPM_P1;HPM_P2
2022/08/19 00:00:14;;;;;;;6.32;4.93;;;;;;;;;;4970355;28;20424;-63
2022/08/19 00:02:41;;;;;;;6.45;4.80;;;;;;;;;;4970693;28;20037;-63
2022/08/19 00:05:07;;;;;;;5.90;4.93;;;;;;;;;;4968455;28;20117;-62
2022/08/19 00:07:33;;;;;;;5.75;4.88;;;;;;;;;;4971186;28;20109;-69
2022/08/19 00:09:58;;;;;;;5.70;4.85;;;;;;;;;;4971209;28;20464;-63
2022/08/19 00:12:24;;;;;;;7.20;5.15;;;;;;;;;;4971832;28;20464;-64
2022/08/19 00:14:49;;;;;;;6.38;5.28;;;;;;;;;;4965136;28;20105;-63
2022/08/19 00:17:15;;;;;;;7.03;5.43;;;;;;;;;;4972846;28;20101;-63
2022/08/19 00:19:40;;;;;;;7.47;5.57;;;;;;;;;;4953355;28;20062;-63
2022/08/19 00:22:08;;;;;;;7.13;5.43;;;;;;;;;;4970848;28;20051;-63
2022/08/19 00:24:34;;;;;;;6.35;5.72;;;;;;;;;;4969966;28;20091;-69
2022/08/19 00:27:01;;;;;;;8.57;5.47;;;;;;;;;;4972184;28;20030;-63
2022/08/19 00:29:27;;;;;;;6.18;5.38;;;;;;;;;;4969854;28;20037;-63
2022/08/19 00:31:54;;;;;;;6.85;5.30;;;;;;;;;;4969806;28;20035;-63
2022/08/19 00:34:21;;;;;;;8.65;5.63;;;;;;;;;;4971307;28;20050;-63
2022/08/19 00:36:47;;;;;;;7.45;6.20;;;;;;;;;;4968063;28;20086;-64
2022/08/19 00:39:13;;;;;;;7.50;5.80;;;;;;;;;;4971568;28;20038;-63
2022/08/19 00:41:40;;;;;;;8.63;6.38;;;;;;;;;;4970586;28;20113;-64
2022/08/19 00:44:13;;;;;;;8.20;6.13;;;;;;;;;;4969399;28;20455;-63
2022/08/19 00:46:41;;;;;;;7.97;5.70;;;;;;;;;;4970989;28;20569;-63
2022/08/19 00:49:14;;;;;;;7.40;6.00;;;;;;;;;;4970459;28;20035;-62
2022/08/19 00:51:42;;;;;;;7.72;5.93;;;;;;;;;;4970210;28;20092;-63
2022/08/19 00:54:08;;;;;;;7.60;5.57;;;;;;;;;;4969855;28;20128;-63
2022/08/19 00:56:35;;;;;;;7.32;6.10;;;;;;;;;;4968385;28;20054;-68
2022/08/19 00:59:01;;;;;;;7.28;5.57;;;;;;;;;;4971453;28;20049;-63
2022/08/19 01:01:27;;;;;;;6.35;5.60;;;;;;;;;;4972861;28;20034;-63
2022/08/19 01:03:52;;;;;;;7.00;5.45;;;;;;;;;;4968827;28;20034;-63
2022/08/19 01:06:18;;;;;;;7.22;6.13;;;;;;;;;;4970294;28;20043;-63
2022/08/19 01:08:43;;;;;;;9.25;5.93;;;;;;;;;;4968393;28;20062;-63
2022/08/19 01:11:09;;;;;;;7.05;6.05;;;;;;;;;;4972076;28;20107;-63
2022/08/19 01:13:35;;;;;;;8.18;6.10;;;;;;;;;;4969199;28;20023;-67
2022/08/19 01:16:07;;;;;;;9.57;6.35;;;;;;;;;;4971339;28;20039;-63
2022/08/19 01:18:38;;;;;;;6.45;5.65;;;;;;;;;;4969702;28;20030;-68
2022/08/19 01:21:15;;;;;;;7.07;6.30;;;;;;;;;;4970433;28;20038;-63
2022/08/19 01:23:42;;;;;;;8.23;6.50;;;;;;;;;;4969149;28;20070;-64
2022/08/19 01:26:18;;;;;;;8.25;6.40;;;;;;;;;;4969332;28;20085;-63
2022/08/19 01:28:46;;;;;;;9.32;6.30;;;;;;;;;;4968971;28;20394;-66
2022/08/19 01:31:21;;;;;;;8.10;6.30;;;;;;;;;;4970458;28;20436;-62
2022/08/19 01:33:47;;;;;;;6.78;5.75;;;;;;;;;;4968070;28;20063;-63
2022/08/19 01:36:23;;;;;;;10.98;6.63;;;;;;;;;;4966559;28;20475;-62
2022/08/19 01:38:49;;;;;;;8.43;6.53;;;;;;;;;;4968305;28;20035;-62
2022/08/19 01:41:15;;;;;;;8.10;6.97;;;;;;;;;;4970166;28;20110;-62
2022/08/19 01:43:40;;;;;;;9.38;6.97;;;;;;;;;;4965100;28;20070;-64
2022/08/19 01:46:06;;;;;;;9.25;7.30;;;;;;;;;;4965782;28;20162;-65
2022/08/19 01:48:37;;;;;;;8.52;7.00;;;;;;;;;;4965555;28;20035;-64
2022/08/19 01:51:03;;;;;;;9.63;7.10;;;;;;;;;;4970637;28;20041;-63
2022/08/19 01:53:28;;;;;;;10.98;7.35;;;;;;;;;;4968100;28;20023;-63
2022/08/19 01:55:54;;;;;;;10.90;7.32;;;;;;;;;;4971334;28;20034;-62
2022/08/19 01:58:24;;;;;;;10.52;7.47;;;;;;;;;;4967990;28;20051;-65
2022/08/19 02:00:51;;;;;;;11.35;7.22;;;;;;;;;;4971579;28;20043;-63
2022/08/19 02:03:16;;;;;;;10.32;7.45;;;;;;;;;;4971486;28;20116;-63
2022/08/19 02:05:43;;;;;;;9.55;7.55;;;;;;;;;;4974895;28;20464;-62
2022/08/19 02:08:09;;;;;;;9.52;7.90;;;;;;;;;;4971285;28;20057;-64
2022/08/19 02:10:39;;;;;;;12.45;8.27;;;;;;;;;;4975477;28;20050;-63
2022/08/19 02:13:05;;;;;;;11.80;9.33;;;;;;;;;;4973653;28;20030;-63
2022/08/19 02:15:30;;;;;;;14.27;10.88;;;;;;;;;;4973004;28;20113;-63
2022/08/19 02:17:55;;;;;;;14.05;10.77;;;;;;;;;;4972879;28;20050;-63
2022/08/19 02:20:22;;;;;;;14.13;10.80;;;;;;;;;;4973063;28;20138;-63
2022/08/19 02:22:47;;;;;;;14.07;9.85;;;;;;;;;;4972826;28;20038;-63
2022/08/19 02:25:13;;;;;;;14.18;11.68;;;;;;;;;;4973586;28;20027;-64
2022/08/19 02:27:40;;;;;;;16.80;12.25;;;;;;;;;;4972013;28;20035;-68
2022/08/19 02:30:09;;;;;;;16.85;12.63;;;;;;;;;;4972720;28;20057;-64
2022/08/19 02:32:34;;;;;;;15.15;11.95;;;;;;;;;;4973328;28;20039;-63
2022/08/19 02:35:00;;;;;;;17.00;12.80;;;;;;;;;;4975041;28;20601;-63
2022/08/19 02:40:09;;;;;;;16.67;12.52;;;;;;;;;;4969152;28;20041;-63
2022/08/19 02:42:35;;;;;;;17.38;12.65;;;;;;;;;;4972010;28;20030;-63
2022/08/19 02:45:00;;;;;;;17.00;12.95;;;;;;;;;;4971934;28;20031;-62
2022/08/19 02:47:25;;;;;;;17.98;13.20;;;;;;;;;;4972334;28;20035;-62
2022/08/19 02:49:51;;;;;;;19.70;13.88;;;;;;;;;;4972145;28;20047;-63
2022/08/19 02:52:16;;;;;;;17.95;13.85;;;;;;;;;;4972643;28;20177;-63
2022/08/19 02:54:42;;;;;;;16.67;12.90;;;;;;;;;;4974520;28;20387;-67
2022/08/19 02:57:07;;;;;;;18.55;14.25;;;;;;;;;;4970271;28;20047;-62
2022/08/19 02:59:33;;;;;;;17.23;13.52;;;;;;;;;;4974076;28;20049;-63
2022/08/19 03:01:59;;;;;;;16.80;13.35;;;;;;;;;;4971738;28;20522;-64
2022/08/19 03:04:24;;;;;;;16.52;13.18;;;;;;;;;;4974162;28;20391;-64
2022/08/19 03:06:50;;;;;;;18.10;14.15;;;;;;;;;;4968740;28;20117;-63
2022/08/19 03:09:18;;;;;;;21.08;14.75;;;;;;;;;;4974198;28;20090;-63
2022/08/19 03:11:44;;;;;;;19.10;14.35;;;;;;;;;;4971703;28;20049;-68
2022/08/19 03:14:10;;;;;;;18.52;13.40;;;;;;;;;;4971774;28;20027;-63
2022/08/19 03:16:43;;;;;;;17.02;13.52;;;;;;;;;;4971203;28;20034;-63
2022/08/19 03:19:08;;;;;;;21.13;14.68;;;;;;;;;;4972452;28;20038;-62
2022/08/19 03:21:34;;;;;;;18.00;13.00;;;;;;;;;;4970558;28;20035;-63
2022/08/19 03:24:03;;;;;;;19.88;12.98;;;;;;;;;;4971797;28;20097;-65
2022/08/19 03:26:29;;;;;;;16.83;12.65;;;;;;;;;;4969494;28;20110;-63
2022/08/19 03:28:54;;;;;;;18.90;14.48;;;;;;;;;;4972979;28;20085;-63
2022/08/19 03:31:22;;;;;;;20.85;14.50;;;;;;;;;;4972203;28;20488;-63
2022/08/19 03:33:49;;;;;;;18.42;13.65;;;;;;;;;;4972652;28;20491;-63
2022/08/19 03:36:23;;;;;;;17.33;13.00;;;;;;;;;;4971213;28;20502;-63
2022/08/19 03:38:54;;;;;;;17.23;12.77;;;;;;;;;;4972501;28;20039;-63
2022/08/19 03:41:26;;;;;;;20.40;13.63;;;;;;;;;;4972600;28;20039;-63
2022/08/19 03:43:53;;;;;;;19.58;12.98;;;;;;;;;;4971363;28;20512;-64
2022/08/19 03:46:22;;;;;;;19.92;13.73;;;;;;;;;;4970616;28;20475;-64
2022/08/19 03:48:53;;;;;;;18.00;13.82;;;;;;;;;;4971955;28;20031;-65
2022/08/19 03:51:24;;;;;;;18.63;13.57;;;;;;;;;;4971152;28;20031;-64
2022/08/19 03:53:50;;;;;;;20.58;13.82;;;;;;;;;;4971359;28;20031;-63
2022/08/19 03:56:16;;;;;;;16.88;12.32;;;;;;;;;;4972907;28;20046;-62
2022/08/19 03:58:42;;;;;;;18.27;12.80;;;;;;;;;;4971777;28;20530;-67
2022/08/19 04:01:15;;;;;;;18.67;12.48;;;;;;;;;;4971243;28;20034;-62
2022/08/19 04:03:40;;;;;;;17.55;12.68;;;;;;;;;;4970043;28;20031;-65
2022/08/19 04:06:12;;;;;;;17.98;12.68;;;;;;;;;;4967383;28;20042;-63
2022/08/19 04:08:39;;;;;;;17.80;13.25;;;;;;;;;;4971845;28;20475;-63
2022/08/19 04:11:26;;;;;;;16.65;12.32;;;;;;;;;;4971751;28;20282;-63
2022/08/19 04:13:52;;;;;;;18.92;12.68;;;;;;;;;;4968800;28;20073;-63
2022/08/19 04:16:20;;;;;;;19.70;12.85;;;;;;;;;;4973531;28;20062;-63
2022/08/19 04:18:46;;;;;;;16.73;12.95;;;;;;;;;;4970815;28;20039;-66
2022/08/19 04:21:17;;;;;;;18.15;13.07;;;;;;;;;;4969116;28;20502;-63
2022/08/19 04:23:42;;;;;;;;;;;;;;;;;;4970502;28;20039;-61
2022/08/19 04:26:32;;;;;;;15.98;12.13;;;;;;;;;;4972403;28;19917;-63
2022/08/19 04:28:59;;;;;;;16.80;12.98;;;;;;;;;;4971467;28;20482;-63
2022/08/19 04:31:28;;;;;;;18.73;13.10;;;;;;;;;;4972054;28;20031;-63
2022/08/19 04:33:56;;;;;;;19.35;14.18;;;;;;;;;;4971515;28;20034;-63
2022/08/19 04:36:25;;;;;;;18.70;13.98;;;;;;;;;;4972281;28;20562;-62
2022/08/19 04:38:54;;;;;;;21.63;14.77;;;;;;;;;;4969979;28;20038;-64
2022/08/19 04:44:04;;;;;;;25.05;17.35;;;;;;;;;;4969219;28;20038;-62
2022/08/19 04:46:31;;;;;;;19.10;14.02;;;;;;;;;;4972012;28;20039;-62
2022/08/19 04:49:01;;;;;;;18.60;14.55;;;;;;;;;;4970412;28;20122;-67
2022/08/19 04:51:26;;;;;;;22.55;13.43;;;;;;;;;;4972606;28;20488;-62
2022/08/19 04:53:52;;;;;;;21.25;13.50;;;;;;;;;;4970880;28;20093;-64
2022/08/19 04:56:20;;;;;;;19.38;13.45;;;;;;;;;;4972848;28;20471;-63
2022/08/19 04:58:47;;;;;;;18.83;13.73;;;;;;;;;;4971430;28;20039;-66
2022/08/19 05:01:20;;;;;;;17.88;13.40;;;;;;;;;;4970547;28;20027;-63
2022/08/19 05:03:46;;;;;;;20.20;13.68;;;;;;;;;;4972782;28;20023;-65
2022/08/19 05:06:14;;;;;;;16.83;12.85;;;;;;;;;;4969482;28;20368;-63
2022/08/19 05:08:42;;;;;;;19.30;12.98;;;;;;;;;;4973230;28;20037;-62
2022/08/19 05:11:16;;;;;;;19.55;13.60;;;;;;;;;;4971714;28;20298;-62
2022/08/19 05:13:43;;;;;;;17.55;13.00;;;;;;;;;;4971950;28;20102;-63
2022/08/19 05:16:09;;;;;;;16.02;12.73;;;;;;;;;;4970444;28;20034;-63
2022/08/19 05:24:08;;;;;;;16.10;12.13;;;;;;;;;;4970879;28;20110;-62
2022/08/19 05:26:42;;;;;;;17.70;12.48;;;;;;;;;;4967834;28;20034;-62
2022/08/19 05:29:09;;;;;;;15.43;11.82;;;;;;;;;;4972144;28;20051;-62
2022/08/19 05:31:38;;;;;;;18.40;13.80;;;;;;;;;;4972251;28;20114;-62
2022/08/19 05:34:04;;;;;;;21.27;14.52;;;;;;;;;;4970172;28;20045;-64
2022/08/19 05:36:44;;;;;;;19.35;14.70;;;;;;;;;;4960775;28;20402;-63
2022/08/19 05:39:15;;;;;;;20.83;14.68;;;;;;;;;;4975643;28;20031;-64
2022/08/19 05:41:52;;;;;;;23.65;15.40;;;;;;;;;;4975259;28;20101;-64
2022/08/19 05:44:19;;;;;;;22.10;15.80;;;;;;;;;;4970023;28;20058;-63
2022/08/19 05:46:46;;;;;;;24.88;15.20;;;;;;;;;;4976291;28;20034;-62
2022/08/19 05:49:14;;;;;;;24.60;15.35;;;;;;;;;;4974694;28;20169;-63
2022/08/19 05:51:40;;;;;;;24.10;16.23;;;;;;;;;;4964228;28;20046;-63
2022/08/19 05:54:07;;;;;;;24.20;15.80;;;;;;;;;;4956985;28;20136;-63
2022/08/19 05:56:36;;;;;;;22.58;15.25;;;;;;;;;;4974293;28;20093;-64
2022/08/19 05:59:03;;;;;;;20.92;15.52;;;;;;;;;;4971682;28;20391;-63
2022/08/19 06:01:29;;;;;;;20.60;14.27;;;;;;;;;;4974098;28;20031;-63
2022/08/19 06:03:55;;;;;;;21.58;14.50;;;;;;;;;;4970712;28;20037;-63
2022/08/19 06:06:21;;;;;;;22.40;15.73;;;;;;;;;;4974858;28;20039;-63
2022/08/19 06:08:50;;;;;;;22.63;15.77;;;;;;;;;;4975220;28;20491;-63
2022/08/19 06:11:21;;;;;;;25.88;16.42;;;;;;;;;;4966552;28;20031;-63
2022/08/19 06:13:50;;;;;;;27.58;17.17;;;;;;;;;;4970370;28;20160;-62
2022/08/19 06:16:21;;;;;;;22.67;16.88;;;;;;;;;;4970793;28;20042;-63
2022/08/19 06:18:49;;;;;;;21.05;16.20;;;;;;;;;;4976073;28;20059;-62
2022/08/19 06:21:14;;;;;;;22.27;16.92;;;;;;;;;;4970872;28;20868;-64
2022/08/19 06:23:40;;;;;;;24.92;17.75;;;;;;;;;;4974158;28;20030;-62
2022/08/19 06:26:05;;;;;;;26.52;17.33;;;;;;;;;;4972910;28;20042;-64
2022/08/19 06:28:32;;;;;;;26.55;19.08;;;;;;;;;;4973837;28;20505;-62
2022/08/19 06:30:58;;;;;;;26.05;17.45;;;;;;;;;;4972426;28;20043;-64
2022/08/19 06:33:23;;;;;;;24.25;18.05;;;;;;;;;;4972126;28;20042;-63
2022/08/19 06:35:49;;;;;;;23.67;17.92;;;;;;;;;;4970755;28;20027;-63
2022/08/19 06:38:14;;;;;;;23.40;17.48;;;;;;;;;;4970942;28;20018;-62
2022/08/19 06:40:39;;;;;;;23.27;16.88;;;;;;;;;;4970609;28;20603;-63
2022/08/19 06:43:05;;;;;;;30.67;16.40;;;;;;;;;;4973011;28;20046;-65
2022/08/19 06:45:30;;;;;;;24.55;17.23;;;;;;;;;;4975377;28;20041;-63
2022/08/19 06:47:57;;;;;;;24.58;16.88;;;;;;;;;;4970867;28;20047;-67
2022/08/19 06:50:24;;;;;;;28.75;17.42;;;;;;;;;;4955797;28;20027;-63
2022/08/19 06:52:49;;;;;;;25.85;17.27;;;;;;;;;;4968550;28;20040;-63
2022/08/19 06:55:15;;;;;;;22.70;16.58;;;;;;;;;;4966875;28;20615;-63
2022/08/19 06:57:42;;;;;;;26.17;18.45;;;;;;;;;;4955335;29;20436;-63
2022/08/19 07:00:15;;;;;;;25.92;17.33;;;;;;;;;;4961253;28;20038;-63
2022/08/19 07:02:42;;;;;;;26.55;17.58;;;;;;;;;;4968111;28;20085;-66
2022/08/19 07:05:07;;;;;;;23.73;18.17;;;;;;;;;;4970647;28;20030;-63
2022/08/19 07:07:34;;;;;;;26.42;18.02;;;;;;;;;;4969512;28;21269;-63
2022/08/19 07:10:00;;;;;;;24.52;17.73;;;;;;;;;;4963307;28;20043;-65
2022/08/19 07:12:34;;;;;;;24.42;17.20;;;;;;;;;;4972044;28;20038;-63
2022/08/19 07:14:59;;;;;;;22.70;16.65;;;;;;;;;;4972203;28;20109;-64
2022/08/19 07:17:25;;;;;;;23.75;16.48;;;;;;;;;;4969111;28;20443;-63
2022/08/19 07:19:51;;;;;;;26.90;16.08;;;;;;;;;;4971547;28;20042;-64
2022/08/19 07:22:17;;;;;;;24.85;17.33;;;;;;;;;;4971778;28;20253;-63
2022/08/19 07:24:43;;;;;;;26.00;16.67;;;;;;;;;;4973869;28;20034;-63
2022/08/19 07:27:09;;;;;;;24.90;14.75;;;;;;;;;;4972108;28;20050;-64
2022/08/19 07:29:36;;;;;;;23.13;15.25;;;;;;;;;;4974502;28;20455;-63
2022/08/19 07:32:03;;;;;;;20.30;14.88;;;;;;;;;;4969768;28;20483;-63
2022/08/19 07:34:30;;;;;;;19.70;14.80;;;;;;;;;;4974133;28;20031;-63
2022/08/19 07:36:57;;;;;;;22.23;15.95;;;;;;;;;;4972376;28;20399;-66
2022/08/19 07:39:25;;;;;;;22.20;16.40;;;;;;;;;;4972887;28;20027;-63
2022/08/19 07:41:52;;;;;;;23.17;16.15;;;;;;;;;;4973657;28;20035;-63
2022/08/19 07:44:19;;;;;;;25.13;15.75;;;;;;;;;;4973326;28;20035;-62
2022/08/19 07:46:48;;;;;;;22.20;16.30;;;;;;;;;;4974394;28;20371;-62
2022/08/19 07:49:18;;;;;;;23.25;16.00;;;;;;;;;;4973586;28;20506;-62
2022/08/19 07:51:46;;;;;;;23.30;16.05;;;;;;;;;;4973987;28;20498;-62
2022/08/19 07:54:12;;;;;;;21.23;16.08;;;;;;;;;;4972574;28;20121;-64
2022/08/19 07:56:38;;;;;;;20.63;16.00;;;;;;;;;;4973855;28;20134;-63
2022/08/19 07:59:03;;;;;;;21.20;15.35;;;;;;;;;;4973007;28;20057;-64
2022/08/19 08:01:29;;;;;;;20.48;14.43;;;;;;;;;;4973613;28;20031;-63
2022/08/19 08:09:31;;;;;;;21.88;14.40;;;;;;;;;;4966744;28;20066;-63
2022/08/19 08:12:10;;;;;;;19.88;14.20;;;;;;;;;;4970378;28;20173;-66
2022/08/19 08:14:47;;;;;;;23.65;14.13;;;;;;;;;;4971760;28;20414;-65
2022/08/19 08:17:17;;;;;;;19.95;13.60;;;;;;;;;;4970299;28;20054;-63
2022/08/19 08:19:44;;;;;;;18.88;13.80;;;;;;;;;;4972769;28;20459;-64
2022/08/19 08:23:21;;;;;;;18.95;13.93;;;;;;;;;;4971608;28;20034;-64
2022/08/19 08:25:09;;;;;;;19.80;13.52;;;;;;;;;;4968108;28;20045;-68
2022/08/19 08:27:39;;;;;;;16.15;12.30;;;;;;;;;;4971858;28;20062;-65
2022/08/19 08:30:14;;;;;;;14.98;11.48;;;;;;;;;;4970433;28;20043;-65
2022/08/19 08:32:40;;;;;;;13.43;10.65;;;;;;;;;;4971234;28;20519;-64
2022/08/19 08:35:09;;;;;;;15.55;10.93;;;;;;;;;;4971436;28;20054;-63
2022/08/19 08:37:35;;;;;;;11.88;10.32;;;;;;;;;;4967473;28;20043;-65
2022/08/19 08:40:40;;;;;;;16.25;11.30;;;;;;;;;;4968652;28;20034;-67
2022/08/19 08:43:17;;;;;;;21.02;12.57;;;;;;;;;;4969626;28;20093;-63
2022/08/19 08:45:51;;;;;;;21.02;11.90;;;;;;;;;;4969418;28;20085;-63
2022/08/19 08:48:53;;;;;;;15.05;12.20;;;;;;;;;;4971598;28;20480;-64
2022/08/19 08:51:26;;;;;;;16.88;11.93;;;;;;;;;;4967500;28;20046;-64
2022/08/19 08:53:53;;;;;;;15.52;12.93;;;;;;;;;;4970639;28;20066;-65
2022/08/19 08:56:19;;;;;;;16.70;12.23;;;;;;;;;;4968811;28;20434;-64
2022/08/19 08:58:54;;;;;;;16.75;12.20;;;;;;;;;;4971559;28;20125;-66
2022/08/19 09:01:20;;;;;;;15.60;11.35;;;;;;;;;;4968536;28;20240;-63
2022/08/19 09:03:45;;;;;;;14.93;11.82;;;;;;;;;;4969894;28;20341;-62
2022/08/19 09:06:36;;;;;;;12.10;10.32;;;;;;;;;;4970520;28;20126;-62
2022/08/19 09:09:19;;;;;;;14.63;10.43;;;;;;;;;;4971788;28;20046;-67
2022/08/19 09:11:58;;;;;;;16.48;11.75;;;;;;;;;;4973178;28;20039;-62
2022/08/19 09:14:45;;;;;;;16.80;12.45;;;;;;;;;;4970387;28;20034;-66
2022/08/19 09:17:12;;;;;;;14.07;11.57;;;;;;;;;;4969838;28;20516;-64
2022/08/19 09:19:55;;;;;;;15.00;12.02;;;;;;;;;;4974357;28;20047;-64
2022/08/19 09:22:21;;;;;;;16.63;13.30;;;;;;;;;;4975354;28;20589;-63
2022/08/19 09:24:52;;;;;;;16.52;12.40;;;;;;;;;;4974935;28;20100;-64
2022/08/19 09:27:18;;;;;;;15.10;12.60;;;;;;;;;;4974675;28;20419;-65
2022/08/19 09:29:44;;;;;;;22.48;13.80;;;;;;;;;;4974416;28;20092;-70
2022/08/19 09:32:09;;;;;;;16.10;12.80;;;;;;;;;;4973554;28;20038;-70
2022/08/19 09:34:35;;;;;;;17.38;13.82;;;;;;;;;;4974024;28;20046;-64
2022/08/19 09:37:00;;;;;;;19.08;12.90;;;;;;;;;;4973940;28;20031;-65
2022/08/19 09:39:26;;;;;;;21.35;13.68;;;;;;;;;;4973532;28;20376;-66
2022/08/19 09:41:52;;;;;;;17.70;14.07;;;;;;;;;;4959212;28;20031;-63
2022/08/19 09:44:20;;;;;;;17.85;14.98;;;;;;;;;;4973678;28;20059;-63
2022/08/19 09:46:48;;;;;;;21.45;14.60;;;;;;;;;;4973721;28;20042;-63
2022/08/19 09:49:15;;;;;;;16.70;14.00;;;;;;;;;;4973480;28;20097;-64
2022/08/19 09:51:40;;;;;;;19.92;15.40;;;;;;;;;;4973398;28;20120;-64
2022/08/19 09:54:06;;;;;;;19.17;14.70;;;;;;;;;;4971399;28;20062;-68
2022/08/19 09:56:32;;;;;;;20.13;15.65;;;;;;;;;;4965057;28;20049;-63
2022/08/19 09:58:59;;;;;;;27.20;16.23;;;;;;;;;;4974306;28;20043;-63
2022/08/19 10:01:27;;;;;;;18.50;15.43;;;;;;;;;;4974334;28;20033;-63
2022/08/19 10:03:55;;;;;;;19.67;14.70;;;;;;;;;;4966305;28;20039;-63
2022/08/19 10:06:25;;;;;;;17.58;14.68;;;;;;;;;;4973828;28;20037;-63
2022/08/19 10:08:51;;;;;;;;;;;;;;;;;;4976490;28;20035;-61
2022/08/19 10:11:18;;;;;;;19.30;16.35;;;;;;;;;;4974128;28;19914;-62
2022/08/19 10:13:44;;;;;;;18.33;15.75;;;;;;;;;;4975025;28;20087;-61
2022/08/19 10:16:13;;;;;;;18.33;16.23;;;;;;;;;;4973413;28;20046;-62
2022/08/19 10:18:42;;;;;;;21.38;16.58;;;;;;;;;;4970884;28;20027;-62
2022/08/19 10:21:13;;;;;;;19.70;14.90;;;;;;;;;;4972351;28;20072;-65
2022/08/19 10:23:44;;;;;;;18.63;15.52;;;;;;;;;;4974775;28;20130;-61
2022/08/19 10:26:15;;;;;;;17.67;14.50;;;;;;;;;;4975704;28;20380;-62
2022/08/19 10:28:41;;;;;;;16.15;12.77;;;;;;;;;;4974025;28;20035;-63
2022/08/19 10:31:10;;;;;;;16.17;13.02;;;;;;;;;;4972655;28;20415;-68
2022/08/19 10:33:38;;;;;;;14.38;11.52;;;;;;;;;;4974474;28;20039;-62
2022/08/19 10:36:06;;;;;;;14.85;9.80;;;;;;;;;;4972187;28;20479;-62
2022/08/19 10:38:33;;;;;;;13.45;10.70;;;;;;;;;;4974248;28;20043;-62
2022/08/19 10:41:19;;;;;;;12.65;9.10;;;;;;;;;;4973009;28;20034;-62
2022/08/19 10:43:45;;;;;;;12.38;8.63;;;;;;;;;;4973319;28;20027;-62
2022/08/19 10:46:14;;;;;;;13.65;10.27;;;;;;;;;;4972237;28;20113;-62
2022/08/19 10:48:44;;;;;;;12.30;8.52;;;;;;;;;;4975014;28;20099;-62
2022/08/19 10:53:55;;;;;;;12.73;10.13;;;;;;;;;;4972499;28;20555;-69
2022/08/19 10:59:05;;;;;;;15.05;11.68;;;;;;;;;;4973672;28;20106;-63
2022/08/19 11:01:33;;;;;;;13.55;9.82;;;;;;;;;;4969802;28;20125;-64
2022/08/19 11:04:00;;;;;;;15.40;10.50;;;;;;;;;;4973828;28;20047;-64
2022/08/19 11:06:26;;;;;;;14.73;10.82;;;;;;;;;;4969383;28;20434;-64
2022/08/19 11:08:53;;;;;;;13.60;10.15;;;;;;;;;;4974560;28;20501;-64
2022/08/19 11:11:18;;;;;;;14.15;9.90;;;;;;;;;;4972881;28;20560;-65
2022/08/19 11:13:46;;;;;;;13.27;10.75;;;;;;;;;;4972697;28;20035;-65
2022/08/19 11:16:16;;;;;;;13.93;11.65;;;;;;;;;;4972231;28;20031;-70
2022/08/19 11:18:44;;;;;;;15.55;10.98;;;;;;;;;;4955581;28;20039;-63
2022/08/19 11:21:24;;;;;;;13.25;11.13;;;;;;;;;;4965945;28;20042;-69
2022/08/19 11:23:52;;;;;;;14.85;10.70;;;;;;;;;;4972563;28;20066;-63
2022/08/19 11:26:20;;;;;;;15.43;11.25;;;;;;;;;;4970576;28;20471;-64
2022/08/19 11:28:46;;;;;;;13.10;11.45;;;;;;;;;;4973667;28;20030;-64
2022/08/19 11:31:17;;;;;;;15.98;12.57;;;;;;;;;;4971708;28;20087;-71
2022/08/19 11:33:43;;;;;;;16.85;13.75;;;;;;;;;;4971136;28;20035;-62
2022/08/19 11:36:08;;;;;;;16.88;13.27;;;;;;;;;;4967081;28;20458;-68
2022/08/19 11:38:35;;;;;;;14.13;12.43;;;;;;;;;;4964875;28;20041;-61
2022/08/19 11:41:05;;;;;;;15.35;13.15;;;;;;;;;;4964922;28;20038;-62
2022/08/19 11:43:31;;;;;;;15.57;12.48;;;;;;;;;;4955657;28;20114;-61
2022/08/19 11:45:57;;;;;;;13.68;10.95;;;;;;;;;;4967222;28;20035;-62
2022/08/19 11:48:23;;;;;;;10.55;9.13;;;;;;;;;;4970205;28;20119;-62
2022/08/19 11:50:50;;;;;;;12.45;8.93;;;;;;;;;;4972739;28;20043;-61
2022/08/19 11:53:19;;;;;;;10.77;8.93;;;;;;;;;;4972430;28;20105;-62
2022/08/19 11:55:46;;;;;;;12.75;11.05;;;;;;;;;;4970382;28;20034;-62
2022/08/19 11:58:15;;;;;;;13.63;11.15;;;;;;;;;;4968845;28;20046;-62
2022/08/19 12:00:41;;;;;;;13.27;10.43;;;;;;;;;;4957575;28;20027;-62
2022/08/19 12:03:07;;;;;;;16.80;10.73;;;;;;;;;;4971961;28;20035;-62
2022/08/19 12:05:32;;;;;;;10.57;9.43;;;;;;;;;;4972791;28;20598;-62
2022/08/19 12:07:58;;;;;;;13.30;10.10;;;;;;;;;;4972275;28;20093;-62
2022/08/19 12:10:23;;;;;;;11.68;9.13;;;;;;;;;;4973134;28;20059;-61
2022/08/19 12:12:49;;;;;;;12.90;10.55;;;;;;;;;;4971922;28;20034;-63
2022/08/19 12:15:14;;;;;;;12.75;9.77;;;;;;;;;;4969466;28;20027;-62
2022/08/19 12:17:43;;;;;;;10.30;9.20;;;;;;;;;;4967301;28;20052;-63
2022/08/19 12:20:10;;;;;;;10.45;8.93;;;;;;;;;;4972182;28;20042;-67
2022/08/19 12:22:37;;;;;;;14.57;9.93;;;;;;;;;;4967863;28;20089;-62
2022/08/19 12:25:05;;;;;;;12.38;10.27;;;;;;;;;;4960800;28;20047;-61
2022/08/19 12:27:31;;;;;;;10.65;8.00;;;;;;;;;;4972433;28;20027;-62
2022/08/19 12:29:56;;;;;;;10.45;7.40;;;;;;;;;;4972259;28;20443;-61
2022/08/19 12:32:24;;;;;;;9.82;8.43;;;;;;;;;;4972466;28;20046;-62
2022/08/19 12:34:50;;;;;;;13.60;8.90;;;;;;;;;;4972242;28;20027;-61
2022/08/19 12:37:16;;;;;;;9.27;7.80;;;;;;;;;;4971989;28;20494;-62
2022/08/19 12:39:42;;;;;;;11.85;9.80;;;;;;;;;;4972843;28;20039;-63
2022/08/19 12:42:10;;;;;;;10.63;8.95;;;;;;;;;;4972237;28;20031;-61
2022/08/19 12:44:37;;;;;;;12.70;9.95;;;;;;;;;;4970951;28;20038;-62
2022/08/19 12:47:04;;;;;;;11.60;10.10;;;;;;;;;;4972319;28;20121;-62
2022/08/19 12:49:30;;;;;;;12.00;8.40;;;;;;;;;;4972315;28;20042;-62
2022/08/19 12:51:57;;;;;;;12.95;9.90;;;;;;;;;;4972354;28;20038;-61
2022/08/19 12:54:23;;;;;;;11.77;10.55;;;;;;;;;;4970833;28;20118;-62
2022/08/19 12:56:48;;;;;;;11.70;10.35;;;;;;;;;;4971704;28;20181;-62
2022/08/19 12:59:16;;;;;;;13.40;10.75;;;;;;;;;;4967345;28;20114;-63
2022/08/19 13:01:42;;;;;;;12.60;9.85;;;;;;;;;;4967531;28;20570;-63
2022/08/19 13:04:08;;;;;;;13.23;9.25;;;;;;;;;;4969563;28;20034;-63
2022/08/19 13:06:33;;;;;;;10.32;9.30;;;;;;;;;;4970967;28;20383;-63
2022/08/19 13:08:59;;;;;;;12.07;8.85;;;;;;;;;;4972386;28;20468;-63
2022/08/19 13:11:24;;;;;;;10.07;8.50;;;;;;;;;;4970354;28;20489;-63
2022/08/19 13:13:51;;;;;;;12.80;8.20;;;;;;;;;;4963661;28;20043;-62
2022/08/19 13:16:19;;;;;;;11.07;8.77;;;;;;;;;;4968686;28;20114;-62
2022/08/19 13:18:52;;;;;;;14.75;8.13;;;;;;;;;;4971327;28;20035;-63
2022/08/19 13:21:22;;;;;;;11.45;7.75;;;;;;;;;;4971181;28;20471;-63
2022/08/19 13:23:48;;;;;;;10.77;7.97;;;;;;;;;;4971061;28;20483;-62
2022/08/19 13:26:14;;;;;;;10.07;7.43;;;;;;;;;;4969580;28;20121;-62
2022/08/19 13:34:11;;;;;;;9.50;6.97;;;;;;;;;;4970946;28;20041;-62
2022/08/19 13:36:37;;;;;;;9.63;6.65;;;;;;;;;;4970909;28;20654;-62
2022/08/19 13:39:05;;;;;;;11.48;6.80;;;;;;;;;;4971974;28;20121;-63
2022/08/19 13:41:31;;;;;;;6.93;6.22;;;;;;;;;;4968380;28;20042;-61
2022/08/19 13:43:56;;;;;;;8.88;6.20;;;;;;;;;;4970732;28;20031;-62
2022/08/19 13:46:22;;;;;;;10.35;6.30;;;;;;;;;;4970353;28;20462;-62
2022/08/19 13:48:50;;;;;;;7.47;6.15;;;;;;;;;;4967818;28;20109;-63
2022/08/19 13:51:17;;;;;;;10.65;5.97;;;;;;;;;;4970792;28;20038;-63
2022/08/19 13:53:43;;;;;;;11.85;5.72;;;;;;;;;;4972242;28;20054;-61
2022/08/19 13:56:14;;;;;;;6.38;5.07;;;;;;;;;;4972044;28;20026;-61
2022/08/19 13:58:39;;;;;;;8.63;4.72;;;;;;;;;;4972423;28;20042;-61
2022/08/19 14:01:06;;;;;;;7.60;5.35;;;;;;;;;;4974267;28;20042;-62
2022/08/19 14:03:33;;;;;;;9.27;5.10;;;;;;;;;;4975523;28;20054;-62
2022/08/19 14:05:58;;;;;;;6.35;4.85;;;;;;;;;;4974963;28;20046;-63
2022/08/19 14:08:24;;;;;;;7.43;4.80;;;;;;;;;;4969697;28;20035;-63
2022/08/19 14:10:50;;;;;;;9.48;4.72;;;;;;;;;;4973996;28;20042;-62
2022/08/19 14:13:19;;;;;;;6.57;4.60;;;;;;;;;;4975054;28;20042;-62
2022/08/19 14:15:47;;;;;;;6.90;4.90;;;;;;;;;;4974954;28;20070;-62
2022/08/19 14:18:13;;;;;;;5.28;4.30;;;;;;;;;;4974822;28;20038;-62
2022/08/19 14:20:38;;;;;;;5.95;4.47;;;;;;;;;;4968660;28;20038;-62
2022/08/19 14:23:07;;;;;;;6.18;5.18;;;;;;;;;;4973227;28;20088;-62
2022/08/19 14:25:33;;;;;;;10.63;5.15;;;;;;;;;;4973336;28;20039;-63
2022/08/19 14:27:58;;;;;;;10.27;5.20;;;;;;;;;;4974378;28;20379;-62
2022/08/19 14:30:30;;;;;;;7.32;4.60;;;;;;;;;;4974107;28;20054;-62
2022/08/19 14:32:58;;;;;;;12.77;4.85;;;;;;;;;;4975632;28;20031;-62
2022/08/19 14:35:24;;;;;;;5.93;4.15;;;;;;;;;;4973855;28;20038;-62
2022/08/19 14:37:54;;;;;;;7.05;4.38;;;;;;;;;;4975428;28;20199;-62
2022/08/19 14:40:25;;;;;;;6.47;4.35;;;;;;;;;;4973727;28;20530;-73
2022/08/19 14:43:03;;;;;;;6.07;4.28;;;;;;;;;;4970964;28;20396;-66
2022/08/19 14:45:33;;;;;;;8.50;4.80;;;;;;;;;;4974524;28;20023;-66
2022/08/19 14:48:02;;;;;;;;;;;;;;;;;;4973150;28;20481;-63
2022/08/19 14:50:28;;;;;;;7.55;4.53;;;;;;;;;;4970832;28;20358;-63
2022/08/19 14:53:06;;;;;;;9.48;5.00;;;;;;;;;;4969555;28;20491;-60
2022/08/19 14:55:32;;;;;;;7.88;5.28;;;;;;;;;;4970043;28;20105;-60
2022/08/19 14:57:58;;;;;;;9.82;5.38;;;;;;;;;;4973697;28;20047;-60